Time;durP1;ratioP1;P1;durP2;ratioP2;P2;SDS_P1;SDS_P2;PMS_P1;PMS_P2;Temp;Humidity;BMP_temperature;BMP_pressure;BME280_temperature;BME280_humidity;BME280_pressure;Samples;Min_cycle;Max_cycle;Signal;HPM_P1;HPM_P2
2021/06/09 00:00:29;;;;;;;1.85;1.02;;;13.30;96.80;;;;;;5016342;28;20053;-47
2021/06/09 00:02:55;;;;;;;1.48;0.98;;;13.20;97.20;;;;;;5033474;28;20496;-48
2021/06/09 00:05:20;;;;;;;1.25;1.00;;;13.20;97.60;;;;;;5033243;28;20072;-51
2021/06/09 00:07:46;;;;;;;1.38;1.00;;;13.20;98.10;;;;;;5033253;28;20030;-52
2021/06/09 00:10:12;;;;;;;1.30;1.05;;;13.10;98.20;;;;;;5033072;28;20025;-46
2021/06/09 00:12:38;;;;;;;4.13;1.25;;;13.10;98.70;;;;;;5033114;28;20113;-46
2021/06/09 00:15:12;;;;;;;1.00;0.88;;;13.00;99.00;;;;;;5032406;28;20101;-48
2021/06/09 00:17:38;;;;;;;0.85;0.82;;;12.90;99.60;;;;;;5033179;28;20520;-47
2021/06/09 00:20:07;;;;;;;1.50;1.13;;;12.80;99.90;;;;;;5033110;28;20041;-53
2021/06/09 00:22:33;;;;;;;1.10;1.00;;;12.80;99.90;;;;;;5043920;28;20033;-47
2021/06/09 00:24:58;;;;;;;0.77;0.77;;;12.70;99.90;;;;;;5051889;28;20078;-50
2021/06/09 00:27:25;;;;;;;1.30;1.17;;;12.60;99.90;;;;;;5052595;28;20021;-47
2021/06/09 00:29:51;;;;;;;1.15;1.05;;;12.50;99.90;;;;;;5051738;28;20049;-46
2021/06/09 00:32:16;;;;;;;1.08;0.98;;;12.50;99.90;;;;;;5052591;28;20025;-47
2021/06/09 00:34:42;;;;;;;1.25;0.95;;;12.40;99.90;;;;;;5052563;28;20024;-46
2021/06/09 00:37:07;;;;;;;3.72;1.20;;;12.40;99.90;;;;;;5033909;28;20040;-50
2021/06/09 00:39:33;;;;;;;1.52;1.00;;;12.30;99.90;;;;;;5032593;28;20033;-48
2021/06/09 00:41:58;;;;;;;1.02;0.80;;;12.30;99.90;;;;;;5032666;28;20492;-46
2021/06/09 00:44:24;;;;;;;1.13;1.00;;;12.20;99.90;;;;;;5033675;28;20048;-48
2021/06/09 00:46:50;;;;;;;1.90;1.00;;;12.10;99.90;;;;;;5052544;28;20067;-47
2021/06/09 00:49:15;;;;;;;1.30;1.10;;;12.00;99.90;;;;;;5045393;28;20548;-50
2021/06/09 00:51:41;;;;;;;2.35;1.13;;;12.00;99.90;;;;;;5032538;28;20030;-52
2021/06/09 00:54:07;;;;;;;1.60;1.00;;;11.90;99.90;;;;;;5032564;28;20030;-51
2021/06/09 00:56:35;;;;;;;2.67;1.38;;;11.90;99.90;;;;;;5040161;28;20099;-48
2021/06/09 00:59:01;;;;;;;2.88;1.40;;;11.80;99.90;;;;;;5050002;28;20099;-48
2021/06/09 01:01:28;;;;;;;1.45;1.27;;;11.80;99.90;;;;;;5031241;28;20056;-49
2021/06/09 01:03:54;;;;;;;1.20;1.10;;;11.70;99.90;;;;;;5032282;28;20044;-50
2021/06/09 01:06:20;;;;;;;1.42;1.33;;;11.70;99.90;;;;;;5032186;28;20025;-49
2021/06/09 01:08:48;;;;;;;1.30;1.17;;;11.60;99.90;;;;;;5032277;28;20049;-48
2021/06/09 01:11:16;;;;;;;1.17;1.08;;;11.60;99.90;;;;;;5032008;28;20025;-50
2021/06/09 01:13:42;;;;;;;5.15;1.88;;;11.50;99.90;;;;;;5032319;28;20469;-46
2021/06/09 01:16:08;;;;;;;1.33;1.23;;;11.40;99.90;;;;;;5031128;28;20093;-48
2021/06/09 01:18:34;;;;;;;2.00;1.25;;;11.40;99.90;;;;;;5030597;28;20156;-48
2021/06/09 01:21:00;;;;;;;7.32;1.42;;;11.30;99.90;;;;;;5032191;28;20036;-49
2021/06/09 01:23:27;;;;;;;1.30;1.20;;;11.30;99.90;;;;;;5030441;28;20079;-48
2021/06/09 01:25:53;;;;;;;1.65;1.55;;;11.20;99.90;;;;;;5032086;28;20496;-50
2021/06/09 01:28:19;;;;;;;1.35;1.23;;;11.20;99.90;;;;;;5031569;28;20060;-51
2021/06/09 01:30:45;;;;;;;1.30;1.20;;;11.20;99.90;;;;;;5031013;28;20457;-50
2021/06/09 01:33:11;;;;;;;4.25;1.83;;;11.10;99.90;;;;;;5030372;28;20032;-48
2021/06/09 01:35:38;;;;;;;1.58;1.48;;;11.00;99.90;;;;;;5031442;28;20029;-47
2021/06/09 01:38:06;;;;;;;1.50;1.40;;;11.00;99.90;;;;;;5031708;28;20104;-47
2021/06/09 01:40:31;;;;;;;1.70;1.40;;;10.90;99.90;;;;;;5031760;28;20145;-49
2021/06/09 01:42:58;;;;;;;1.60;1.48;;;10.90;99.90;;;;;;5030409;28;20514;-46
2021/06/09 01:45:30;;;;;;;2.08;1.75;;;10.90;99.90;;;;;;5030709;28;20029;-48
2021/06/09 01:47:56;;;;;;;3.10;1.65;;;10.80;99.90;;;;;;5031542;28;20471;-48
2021/06/09 01:50:23;;;;;;;2.10;1.63;;;10.80;99.90;;;;;;5031524;28;20025;-46
2021/06/09 01:52:50;;;;;;;1.90;1.60;;;10.80;99.90;;;;;;5032475;28;20381;-48
2021/06/09 01:55:19;;;;;;;1.40;1.30;;;10.80;99.90;;;;;;5031413;28;20021;-47
2021/06/09 01:57:45;;;;;;;1.45;1.35;;;10.70;99.90;;;;;;5032330;28;20021;-46
2021/06/09 02:00:15;;;;;;;2.05;1.60;;;10.70;99.90;;;;;;5041833;28;20144;-52
2021/06/09 02:02:41;;;;;;;2.15;1.45;;;10.70;99.90;;;;;;5052313;28;20416;-49
2021/06/09 02:05:09;;;;;;;3.92;1.30;;;10.60;99.90;;;;;;5052477;28;20029;-51
2021/06/09 02:07:36;;;;;;;1.45;1.35;;;10.60;99.90;;;;;;5052213;28;20090;-50
2021/06/09 02:10:06;;;;;;;3.20;1.55;;;10.60;99.90;;;;;;5052355;28;20045;-45
2021/06/09 02:12:32;;;;;;;1.65;1.40;;;10.60;99.90;;;;;;5050696;28;20025;-49
2021/06/09 02:14:57;;;;;;;1.75;1.63;;;10.50;99.90;;;;;;5051331;28;20070;-46
2021/06/09 02:17:23;;;;;;;1.55;1.45;;;10.50;99.90;;;;;;5052102;28;20028;-47
2021/06/09 02:19:48;;;;;;;3.95;2.03;;;10.50;99.90;;;;;;5052307;28;20025;-49
2021/06/09 02:22:14;;;;;;;2.95;1.50;;;10.40;99.90;;;;;;5052369;28;20036;-49
2021/06/09 02:24:39;;;;;;;4.13;1.65;;;10.40;99.90;;;;;;5052131;28;20439;-51
2021/06/09 02:27:05;;;;;;;1.58;1.48;;;10.40;99.90;;;;;;5052030;28;20025;-50
2021/06/09 02:29:31;;;;;;;2.05;1.90;;;10.30;99.90;;;;;;5050961;28;20029;-52
2021/06/09 02:31:56;;;;;;;4.20;2.00;;;10.30;99.90;;;;;;5052125;28;20059;-48
2021/06/09 02:34:24;;;;;;;2.20;2.00;;;10.30;99.90;;;;;;5052094;28;20025;-49
2021/06/09 02:36:51;;;;;;;3.15;2.00;;;10.30;99.90;;;;;;5035594;28;20026;-47
2021/06/09 02:39:18;;;;;;;4.13;2.47;;;10.30;99.90;;;;;;5032278;28;20072;-48
2021/06/09 02:41:44;;;;;;;2.95;2.28;;;10.30;99.90;;;;;;5032139;28;20103;-50
2021/06/09 02:44:10;;;;;;;2.22;2.03;;;10.30;99.90;;;;;;5030889;28;20049;-50
2021/06/09 02:46:44;;;;;;;1.90;1.70;;;10.20;99.90;;;;;;5032455;28;20488;-49
2021/06/09 02:49:12;;;;;;;3.67;3.08;;;10.20;99.90;;;;;;5034585;28;20032;-46
2021/06/09 02:52:01;;;;;;;3.90;2.70;;;10.10;99.90;;;;;;5034385;28;20065;-46
2021/06/09 02:54:40;;;;;;;5.03;3.08;;;10.20;99.90;;;;;;5035220;28;20449;-51
2021/06/09 02:57:30;;;;;;;2.90;2.35;;;10.20;99.90;;;;;;5035575;28;20026;-50
2021/06/09 03:00:09;;;;;;;2.60;2.40;;;10.20;99.90;;;;;;5044407;28;20037;-51
2021/06/09 03:03:12;;;;;;;2.85;2.65;;;10.20;99.90;;;;;;5055349;28;20372;-48
2021/06/09 03:05:47;;;;;;;2.58;2.38;;;10.20;99.90;;;;;;5055438;28;20052;-46
2021/06/09 03:08:30;;;;;;;3.90;2.95;;;10.10;99.90;;;;;;5052754;28;20071;-48
2021/06/09 03:10:58;;;;;;;3.03;2.40;;;10.20;99.90;;;;;;5055356;28;20045;-47
2021/06/09 03:14:03;;;;;;;5.28;2.47;;;10.20;99.90;;;;;;5053878;28;20021;-48
2021/06/09 03:16:45;;;;;;;2.75;2.08;;;10.20;99.90;;;;;;5054618;28;20105;-49
2021/06/09 03:19:17;;;;;;;4.28;2.92;;;10.30;99.90;;;;;;5055255;28;20040;-49
2021/06/09 03:21:49;;;;;;;4.07;3.40;;;10.30;99.90;;;;;;5054982;28;20201;-47
2021/06/09 03:24:23;;;;;;;4.68;3.20;;;10.30;99.90;;;;;;5037723;28;20029;-49
2021/06/09 03:27:20;;;;;;;3.25;2.70;;;10.40;99.90;;;;;;5055012;28;20039;-47
2021/06/09 03:30:00;;;;;;;4.90;2.95;;;10.40;99.90;;;;;;5052261;28;20043;-47
2021/06/09 03:32:34;;;;;;;3.53;2.63;;;10.50;99.90;;;;;;5054811;28;20547;-47
2021/06/09 03:35:09;;;;;;;2.13;1.92;;;10.60;99.90;;;;;;5053744;28;20047;-49
2021/06/09 03:37:39;;;;;;;2.35;2.00;;;10.80;99.90;;;;;;5034586;28;20022;-48
2021/06/09 03:40:12;;;;;;;3.30;2.47;;;11.50;99.90;;;;;;5033646;28;20033;-48
2021/06/09 03:42:42;;;;;;;4.43;3.22;;;13.00;99.90;;;;;;5034577;28;20033;-46
2021/06/09 03:45:08;;;;;;;9.27;5.38;;;14.60;99.90;;;;;;5033515;28;20037;-46
2021/06/09 03:47:35;;;;;;;8.85;5.00;;;16.10;99.90;;;;;;5034475;28;20445;-46
2021/06/09 03:50:02;;;;;;;6.88;4.63;;;17.40;95.90;;;;;;5034852;28;20531;-53
2021/06/09 03:52:28;;;;;;;9.45;5.25;;;18.60;91.50;;;;;;5034480;28;20033;-50
2021/06/09 03:54:57;;;;;;;6.68;5.15;;;19.50;86.50;;;;;;5034649;28;20373;-48
2021/06/09 03:57:25;;;;;;;7.97;5.20;;;20.40;82.40;;;;;;5034360;28;20044;-47
2021/06/09 03:59:54;;;;;;;6.13;4.85;;;21.30;78.90;;;;;;5042315;28;20080;-49
2021/06/09 04:02:23;;;;;;;6.10;3.75;;;22.00;76.60;;;;;;5054543;28;20036;-48
2021/06/09 04:04:52;;;;;;;6.15;4.47;;;22.80;74.20;;;;;;5054224;28;20033;-50
2021/06/09 04:07:21;;;;;;;3.67;3.15;;;23.40;71.90;;;;;;5054250;28;20472;-47
2021/06/09 04:09:48;;;;;;;4.25;3.60;;;23.80;71.50;;;;;;5034751;28;20469;-49
2021/06/09 04:12:14;;;;;;;3.42;2.72;;;23.80;69.70;;;;;;5033019;28;20481;-46
2021/06/09 04:14:43;;;;;;;4.18;2.35;;;24.30;69.10;;;;;;5033045;28;20483;-46
2021/06/09 04:17:10;;;;;;;2.13;1.80;;;24.70;67.80;;;;;;5033870;28;20013;-47
2021/06/09 04:19:40;;;;;;;4.13;1.65;;;25.30;66.70;;;;;;5033895;28;20029;-49
2021/06/09 04:22:07;;;;;;;2.42;1.80;;;25.90;65.30;;;;;;5033748;28;20057;-47
2021/06/09 04:24:33;;;;;;;2.08;1.70;;;26.60;63.60;;;;;;5033820;28;20034;-53
2021/06/09 04:27:01;;;;;;;2.50;1.50;;;27.00;62.20;;;;;;5032654;28;20116;-48
2021/06/09 04:29:29;;;;;;;1.50;1.40;;;27.60;61.10;;;;;;5032781;28;20033;-48
2021/06/09 04:31:55;;;;;;;1.65;1.40;;;28.00;59.50;;;;;;5033422;28;20036;-51
2021/06/09 04:34:20;;;;;;;1.50;1.40;;;28.50;58.70;;;;;;5033733;28;20121;-50
2021/06/09 04:36:50;;;;;;;2.53;1.35;;;29.00;57.50;;;;;;5033328;28;20420;-49
2021/06/09 04:39:16;;;;;;;1.40;1.30;;;29.50;55.40;;;;;;5033678;28;20061;-48
2021/06/09 04:41:42;;;;;;;1.23;1.10;;;30.00;55.30;;;;;;5033687;28;20037;-48
2021/06/09 04:44:07;;;;;;;1.67;1.13;;;30.40;54.40;;;;;;5032627;28;20431;-51
2021/06/09 04:46:33;;;;;;;1.50;1.27;;;30.60;53.60;;;;;;5033467;28;20499;-50
2021/06/09 04:49:05;;;;;;;1.38;1.17;;;30.80;53.00;;;;;;5033379;28;20065;-49
2021/06/09 04:51:38;;;;;;;1.50;1.13;;;31.30;51.80;;;;;;5033578;28;20017;-47
2021/06/09 04:54:05;;;;;;;1.48;1.20;;;31.50;51.30;;;;;;5033450;28;20027;-49
2021/06/09 04:56:37;;;;;;;3.67;1.13;;;31.60;50.80;;;;;;5033472;28;20026;-50
2021/06/09 04:59:04;;;;;;;3.35;1.15;;;31.80;46.90;;;;;;5027271;28;20087;-49
2021/06/09 05:01:30;;;;;;;2.03;1.15;;;32.00;49.40;;;;;;5052552;28;20050;-49
2021/06/09 05:03:59;;;;;;;2.05;1.20;;;32.30;48.40;;;;;;5052878;28;20021;-49
2021/06/09 05:06:25;;;;;;;0.95;0.95;;;32.40;48.00;;;;;;5053240;28;20648;-49
2021/06/09 05:08:52;;;;;;;1.40;1.30;;;32.60;47.60;;;;;;5052627;28;20036;-51
2021/06/09 05:11:23;;;;;;;1.00;0.90;;;32.90;47.10;;;;;;5052780;28;20028;-53
2021/06/09 05:13:52;;;;;;;2.85;1.27;;;33.50;45.90;;;;;;5052854;28;20032;-49
2021/06/09 05:16:20;;;;;;;2.70;1.25;;;33.90;45.60;;;;;;5051790;28;20023;-49
2021/06/09 05:18:51;;;;;;;1.88;1.08;;;34.20;44.90;;;;;;5052718;28;20025;-50
2021/06/09 05:21:21;;;;;;;2.67;1.20;;;34.40;44.30;;;;;;5051693;28;20021;-49
2021/06/09 05:23:50;;;;;;;1.23;0.93;;;34.80;43.50;;;;;;5052646;28;20507;-52
2021/06/09 05:26:16;;;;;;;1.20;0.82;;;35.20;42.90;;;;;;5052868;28;20108;-52
2021/06/09 05:28:50;;;;;;;4.30;0.88;;;35.50;42.90;;;;;;5052543;28;20025;-53
2021/06/09 05:31:17;;;;;;;1.67;1.13;;;35.80;42.00;;;;;;5051976;28;20313;-49
2021/06/09 05:33:45;;;;;;;2.45;1.08;;;36.00;41.80;;;;;;5052543;28;20391;-47
2021/06/09 05:36:12;;;;;;;0.75;0.75;;;36.20;41.20;;;;;;5041850;28;20473;-47
2021/06/09 05:38:38;;;;;;;1.00;0.95;;;36.60;40.60;;;;;;5032663;28;20036;-51
2021/06/09 05:41:04;;;;;;;1.17;0.93;;;36.80;40.00;;;;;;5032773;28;20025;-50
2021/06/09 05:43:29;;;;;;;2.80;0.93;;;37.10;39.80;;;;;;5032603;28;20058;-51
2021/06/09 05:45:56;;;;;;;0.98;0.88;;;37.20;39.30;;;;;;5031671;28;20032;-52
2021/06/09 05:48:22;;;;;;;1.02;0.98;;;37.50;39.10;;;;;;5032181;28;20025;-49
2021/06/09 05:50:53;;;;;;;1.15;0.82;;;37.80;38.80;;;;;;5032627;28;20350;-52
2021/06/09 05:53:22;;;;;;;1.25;0.90;;;38.00;37.50;;;;;;5032669;28;20032;-51
2021/06/09 05:55:48;;;;;;;1.50;0.80;;;38.00;38.00;;;;;;5030076;28;20040;-52
2021/06/09 05:58:22;;;;;;;1.98;0.70;;;38.00;37.80;;;;;;5032363;28;20029;-52
2021/06/09 06:01:14;;;;;;;4.03;1.27;;;38.10;36.90;;;;;;5048011;28;20044;-50
2021/06/09 06:03:41;;;;;;;2.90;1.15;;;38.50;35.70;;;;;;5051673;28;20376;-50
2021/06/09 06:06:10;;;;;;;2.90;1.00;;;38.70;37.00;;;;;;5052345;28;20029;-50
2021/06/09 06:08:38;;;;;;;3.13;1.15;;;39.20;36.40;;;;;;5052070;28;20120;-52
2021/06/09 06:11:09;;;;;;;2.63;0.77;;;39.50;36.00;;;;;;5052273;28;20025;-53
2021/06/09 06:13:35;;;;;;;2.83;0.90;;;39.80;35.70;;;;;;5052158;28;20100;-53
2021/06/09 06:16:01;;;;;;;1.08;0.70;;;39.90;35.30;;;;;;5051265;28;20021;-50
2021/06/09 06:18:39;;;;;;;2.08;0.82;;;40.10;35.20;;;;;;5052170;28;20021;-53
2021/06/09 06:21:06;;;;;;;1.90;0.77;;;40.40;33.50;;;;;;5052053;28;20032;-51
2021/06/09 06:23:33;;;;;;;1.88;0.60;;;40.60;34.60;;;;;;5055925;28;20039;-54
2021/06/09 06:25:59;;;;;;;0.70;0.55;;;40.80;34.30;;;;;;5055955;28;20029;-50
2021/06/09 06:28:25;;;;;;;0.88;0.73;;;40.80;34.00;;;;;;5056221;28;20059;-51
2021/06/09 06:30:52;;;;;;;1.88;0.80;;;41.10;33.90;;;;;;5054605;28;20029;-50
2021/06/09 06:33:22;;;;;;;0.75;0.70;;;41.30;34.30;;;;;;5056024;28;20024;-52
2021/06/09 06:35:49;;;;;;;1.05;0.82;;;41.40;33.30;;;;;;5047896;28;20389;-49
2021/06/09 06:38:14;;;;;;;3.20;0.95;;;41.60;33.00;;;;;;5035930;28;20029;-49
2021/06/09 06:40:42;;;;;;;0.90;0.80;;;41.60;32.70;;;;;;5035845;28;20036;-50
2021/06/09 06:43:08;;;;;;;0.93;0.70;;;41.70;32.70;;;;;;5035726;28;20030;-54
2021/06/09 06:45:33;;;;;;;0.65;0.65;;;41.90;32.70;;;;;;5034888;28;20025;-53
2021/06/09 06:47:59;;;;;;;1.65;0.60;;;42.10;32.40;;;;;;5035543;28;20021;-53
2021/06/09 06:50:25;;;;;;;0.50;0.50;;;42.30;32.40;;;;;;5035461;28;20017;-51
2021/06/09 06:52:52;;;;;;;0.93;0.50;;;42.40;32.10;;;;;;5035768;28;20105;-53
2021/06/09 06:55:21;;;;;;;2.63;0.73;;;42.60;32.00;;;;;;5035642;28;20017;-51
2021/06/09 06:57:48;;;;;;;0.80;0.80;;;42.60;32.40;;;;;;5035609;28;20029;-52
2021/06/09 07:00:17;;;;;;;2.45;0.85;;;42.70;31.40;;;;;;5033013;28;20095;-56
2021/06/09 07:02:47;;;;;;;0.80;0.80;;;42.70;31.20;;;;;;5029883;28;20045;-54
2021/06/09 07:05:14;;;;;;;0.70;0.70;;;42.70;31.20;;;;;;5019106;28;20030;-53
2021/06/09 07:07:41;;;;;;;1.00;0.75;;;42.80;31.20;;;;;;5015754;28;20038;-49
2021/06/09 07:10:10;;;;;;;0.60;0.60;;;42.80;31.20;;;;;;5023377;28;20489;-54
2021/06/09 07:12:38;;;;;;;0.52;0.52;;;42.90;31.20;;;;;;5034581;28;20053;-51
2021/06/09 07:15:26;;;;;;;1.05;0.60;;;43.20;30.90;;;;;;5033329;28;20025;-53
2021/06/09 07:17:53;;;;;;;1.63;0.80;;;43.50;30.40;;;;;;5015053;28;20036;-51
2021/06/09 07:20:22;;;;;;;1.25;0.70;;;43.30;30.80;;;;;;5021757;28;20449;-56
2021/06/09 07:22:49;;;;;;;1.63;0.90;;;42.70;30.50;;;;;;5017343;28;20030;-52
2021/06/09 07:25:17;;;;;;;1.17;0.93;;;42.70;30.40;;;;;;5030286;28;20033;-52
2021/06/09 07:27:47;;;;;;;2.67;1.00;;;42.80;30.40;;;;;;5034786;28;20022;-53
2021/06/09 07:30:16;;;;;;;0.75;0.70;;;43.10;30.30;;;;;;5033196;28;20087;-53
2021/06/09 07:32:44;;;;;;;1.27;0.93;;;43.40;30.00;;;;;;5036809;28;20451;-57
2021/06/09 07:35:11;;;;;;;1.02;0.70;;;42.70;30.00;;;;;;5048569;28;20492;-54
2021/06/09 07:38:08;;;;;;;0.77;0.77;;;42.20;30.50;;;;;;5034762;28;20491;-53
2021/06/09 07:40:38;;;;;;;1.00;0.77;;;42.40;29.80;;;;;;5033686;28;20095;-53
2021/06/09 07:43:09;;;;;;;1.58;0.70;;;42.70;30.00;;;;;;5034408;28;20611;-52
2021/06/09 07:45:38;;;;;;;1.95;0.80;;;42.90;30.00;;;;;;5033155;28;20033;-53
2021/06/09 07:48:06;;;;;;;0.88;0.88;;;42.70;29.70;;;;;;5033665;28;20026;-54
2021/06/09 07:50:40;;;;;;;0.68;0.68;;;42.50;30.00;;;;;;5041027;28;20056;-50
2021/06/09 07:53:07;;;;;;;1.15;0.80;;;42.60;30.00;;;;;;5041596;28;20144;-50
2021/06/09 07:55:41;;;;;;;0.95;0.68;;;43.20;29.70;;;;;;5036487;28;20025;-51
2021/06/09 07:58:08;;;;;;;1.52;0.73;;;43.40;29.20;;;;;;5038494;28;20025;-55
2021/06/09 08:00:35;;;;;;;0.90;0.75;;;43.40;29.60;;;;;;5023958;28;20177;-56
2021/06/09 08:03:01;;;;;;;0.80;0.70;;;43.40;29.60;;;;;;5030004;28;20034;-55
2021/06/09 08:05:27;;;;;;;2.30;0.82;;;43.20;29.30;;;;;;5032290;28;20436;-55
2021/06/09 08:07:54;;;;;;;0.73;0.70;;;43.40;29.40;;;;;;5041761;28;20037;-57
2021/06/09 08:10:20;;;;;;;1.55;0.70;;;43.40;29.30;;;;;;5049797;28;20052;-51
2021/06/09 08:12:53;;;;;;;0.70;0.60;;;43.70;28.90;;;;;;5047489;28;20096;-54
2021/06/09 08:15:20;;;;;;;2.63;0.80;;;43.50;29.20;;;;;;5052859;28;20112;-49
2021/06/09 08:17:47;;;;;;;0.63;0.57;;;43.80;29.20;;;;;;5042790;28;20038;-54
2021/06/09 08:20:22;;;;;;;0.60;0.60;;;43.70;29.00;;;;;;5031393;28;20497;-54
2021/06/09 08:22:49;;;;;;;0.70;0.70;;;44.10;28.40;;;;;;5033325;28;20039;-53
2021/06/09 08:25:19;;;;;;;0.70;0.70;;;44.30;28.40;;;;;;5033520;28;20083;-53
2021/06/09 08:27:45;;;;;;;1.00;0.73;;;44.60;28.60;;;;;;5033077;28;20029;-54
2021/06/09 08:30:12;;;;;;;1.27;0.77;;;44.60;28.80;;;;;;5032162;28;20029;-54
2021/06/09 08:32:38;;;;;;;1.48;0.70;;;44.50;28.80;;;;;;5035313;28;20491;-51
2021/06/09 08:35:05;;;;;;;1.65;0.50;;;44.70;28.80;;;;;;5033031;28;20061;-52
2021/06/09 08:37:31;;;;;;;1.33;0.90;;;45.00;28.70;;;;;;5033278;28;20029;-57
2021/06/09 08:39:56;;;;;;;1.08;0.75;;;45.10;28.70;;;;;;5033156;28;20071;-52
2021/06/09 08:42:25;;;;;;;1.85;0.60;;;45.10;28.50;;;;;;5033629;28;20472;-50
2021/06/09 08:44:51;;;;;;;0.70;0.70;;;45.00;28.30;;;;;;5031612;28;20038;-53
2021/06/09 08:47:17;;;;;;;0.65;0.50;;;44.80;28.60;;;;;;5029087;28;20072;-54
2021/06/09 08:49:43;;;;;;;0.80;0.63;;;44.90;28.80;;;;;;5037926;28;20033;-52
2021/06/09 08:52:11;;;;;;;0.98;0.60;;;44.90;28.60;;;;;;5032451;28;20044;-56
2021/06/09 08:54:41;;;;;;;0.57;0.57;;;45.00;28.40;;;;;;5017272;28;20104;-56
2021/06/09 08:57:07;;;;;;;1.23;0.80;;;45.10;28.40;;;;;;5016729;28;20025;-52
2021/06/09 08:59:33;;;;;;;0.55;0.55;;;45.30;28.40;;;;;;5041410;28;20095;-54
2021/06/09 09:01:59;;;;;;;0.60;0.60;;;45.30;28.30;;;;;;5040099;28;20029;-55
2021/06/09 09:04:27;;;;;;;0.95;0.57;;;44.80;28.20;;;;;;5045126;28;20033;-52
2021/06/09 09:06:53;;;;;;;0.55;0.55;;;44.60;28.40;;;;;;5015966;28;20193;-54
2021/06/09 09:09:18;;;;;;;0.85;0.80;;;44.30;28.50;;;;;;5029898;28;20112;-52
2021/06/09 09:11:44;;;;;;;0.60;0.50;;;44.10;28.50;;;;;;5021193;28;20049;-56
2021/06/09 09:14:10;;;;;;;0.70;0.70;;;43.80;28.70;;;;;;5032319;28;20025;-52
2021/06/09 09:16:36;;;;;;;0.73;0.70;;;43.40;28.80;;;;;;5043005;28;20097;-55
2021/06/09 09:19:04;;;;;;;0.85;0.77;;;43.30;29.60;;;;;;5020408;28;20065;-52
2021/06/09 09:21:43;;;;;;;0.43;0.43;;;43.10;29.10;;;;;;5032088;28;20049;-53
2021/06/09 09:24:11;;;;;;;0.60;0.60;;;43.30;28.80;;;;;;5036859;28;20499;-52
2021/06/09 09:26:40;;;;;;;1.05;0.60;;;43.20;28.90;;;;;;5039215;28;20025;-50
2021/06/09 09:29:15;;;;;;;1.67;0.90;;;43.10;29.00;;;;;;5029146;28;20117;-53
2021/06/09 09:31:52;;;;;;;1.48;0.80;;;42.70;28.90;;;;;;5028381;28;20033;-53
2021/06/09 09:34:44;;;;;;;1.33;0.90;;;42.60;29.20;;;;;;5037585;28;20112;-52
2021/06/09 09:37:18;;;;;;;1.27;0.80;;;42.00;29.00;;;;;;5031434;28;20488;-54
2021/06/09 09:39:51;;;;;;;1.58;0.95;;;41.60;29.50;;;;;;5043145;28;20483;-52
2021/06/09 09:42:19;;;;;;;0.70;0.70;;;41.30;29.60;;;;;;5032705;28;20033;-52
2021/06/09 09:44:46;;;;;;;0.65;0.60;;;41.00;29.70;;;;;;5027935;28;20051;-51
2021/06/09 09:47:17;;;;;;;0.60;0.60;;;40.80;29.70;;;;;;5041888;28;20024;-55
2021/06/09 09:49:43;;;;;;;0.60;0.55;;;40.50;29.80;;;;;;5023715;28;20045;-51
2021/06/09 09:52:08;;;;;;;0.80;0.80;;;40.30;29.70;;;;;;5012274;28;20030;-51
2021/06/09 09:54:36;;;;;;;1.60;0.70;;;39.60;29.80;;;;;;5024423;28;20033;-51
2021/06/09 09:57:05;;;;;;;0.98;0.70;;;38.30;30.40;;;;;;5035263;28;20029;-53
2021/06/09 09:59:31;;;;;;;1.13;0.95;;;37.10;31.00;;;;;;5034840;28;20029;-49
2021/06/09 10:01:58;;;;;;;1.05;0.98;;;36.00;31.80;;;;;;5033694;28;20064;-54
2021/06/09 10:04:28;;;;;;;0.77;0.77;;;35.10;32.30;;;;;;5042144;28;20020;-53
2021/06/09 10:06:55;;;;;;;0.98;0.75;;;34.50;32.80;;;;;;5037041;28;20419;-53
2021/06/09 10:09:23;;;;;;;0.80;0.70;;;33.90;33.30;;;;;;5033609;28;20037;-53
2021/06/09 10:11:55;;;;;;;1.65;0.90;;;33.40;33.70;;;;;;5040549;28;20052;-53
2021/06/09 10:14:51;;;;;;;0.90;0.90;;;32.90;34.10;;;;;;5042687;28;20136;-51
2021/06/09 10:17:25;;;;;;;1.13;0.97;;;32.20;34.90;;;;;;5037525;28;20040;-51
2021/06/09 10:20:00;;;;;;;1.23;0.90;;;31.80;36.00;;;;;;5033734;28;20026;-51
2021/06/09 10:22:35;;;;;;;0.80;0.80;;;31.40;37.00;;;;;;5029024;28;20045;-51
2021/06/09 10:25:07;;;;;;;0.90;0.90;;;31.10;37.20;;;;;;5034746;28;20101;-51
2021/06/09 10:27:47;;;;;;;1.23;1.10;;;30.70;37.10;;;;;;5021762;28;20040;-53
2021/06/09 10:30:22;;;;;;;0.88;0.85;;;30.40;37.40;;;;;;5031165;28;20072;-53
2021/06/09 10:32:59;;;;;;;0.80;0.80;;;30.30;37.70;;;;;;5043800;28;20032;-54
2021/06/09 10:35:27;;;;;;;2.05;0.90;;;30.20;38.30;;;;;;5031049;28;20821;-50
2021/06/09 10:37:54;;;;;;;0.75;0.75;;;30.30;37.80;;;;;;5032579;28;20456;-49
2021/06/09 10:40:23;;;;;;;1.05;0.70;;;30.40;38.00;;;;;;5042885;28;20052;-54
2021/06/09 10:42:49;;;;;;;1.13;0.90;;;30.30;38.20;;;;;;5030390;28;20404;-52
2021/06/09 10:45:17;;;;;;;1.63;1.25;;;30.10;38.10;;;;;;5045645;28;20033;-54
2021/06/09 10:47:44;;;;;;;1.30;1.00;;;29.80;38.70;;;;;;5049327;28;20464;-52
2021/06/09 10:50:10;;;;;;;1.73;1.10;;;29.30;38.90;;;;;;5040230;28;20507;-53
2021/06/09 10:52:38;;;;;;;2.45;1.20;;;28.90;39.30;;;;;;5035383;28;20057;-53
2021/06/09 10:55:05;;;;;;;1.67;1.00;;;28.70;39.80;;;;;;5038687;28;20064;-49
2021/06/09 10:57:31;;;;;;;1.00;1.00;;;28.70;40.60;;;;;;5036341;28;20079;-52
2021/06/09 10:59:57;;;;;;;1.13;1.02;;;28.50;40.60;;;;;;5030867;28;20049;-54
2021/06/09 11:02:24;;;;;;;2.78;1.05;;;28.50;40.50;;;;;;5031169;28;20097;-51
2021/06/09 11:04:53;;;;;;;2.20;1.33;;;28.50;41.10;;;;;;5029765;28;20030;-51
2021/06/09 11:07:33;;;;;;;1.00;0.90;;;28.30;41.30;;;;;;5029312;28;20034;-51
2021/06/09 11:10:05;;;;;;;2.83;0.90;;;28.10;41.50;;;;;;5031655;28;20028;-52
2021/06/09 11:12:49;;;;;;;0.88;0.80;;;28.20;42.00;;;;;;5034739;28;20018;-51
2021/06/09 11:15:19;;;;;;;1.08;0.98;;;28.30;42.40;;;;;;5034023;28;20041;-53
2021/06/09 11:17:50;;;;;;;2.90;1.10;;;28.60;41.30;;;;;;5035194;28;20036;-50
2021/06/09 11:20:37;;;;;;;1.15;1.05;;;28.70;41.90;;;;;;5035002;28;20563;-49
2021/06/09 11:23:06;;;;;;;1.08;1.08;;;28.50;41.60;;;;;;5034871;28;20018;-53
2021/06/09 11:25:44;;;;;;;1.10;0.77;;;28.10;41.60;;;;;;5034619;28;20053;-52
2021/06/09 11:28:17;;;;;;;2.03;1.02;;;27.90;43.00;;;;;;5034972;28;20415;-53
2021/06/09 11:30:58;;;;;;;1.10;1.05;;;27.70;42.60;;;;;;5034074;28;20025;-53
2021/06/09 11:33:40;;;;;;;1.02;0.88;;;27.60;42.80;;;;;;5034986;28;20064;-51
2021/06/09 11:36:12;;;;;;;2.88;0.90;;;27.60;42.70;;;;;;5028992;28;20048;-49
2021/06/09 11:38:45;;;;;;;1.83;1.02;;;27.70;42.80;;;;;;5035077;28;20480;-50
2021/06/09 11:41:14;;;;;;;1.63;0.93;;;27.60;43.40;;;;;;5034726;28;20052;-53
2021/06/09 11:43:49;;;;;;;2.63;1.17;;;27.50;42.90;;;;;;5034936;28;20056;-52
2021/06/09 11:46:17;;;;;;;2.25;0.90;;;27.40;42.70;;;;;;5028476;28;20048;-54
2021/06/09 11:49:11;;;;;;;2.50;1.30;;;27.60;43.20;;;;;;5032753;28;20030;-52
2021/06/09 11:51:38;;;;;;;1.30;1.10;;;27.60;43.00;;;;;;5029147;28;20045;-50
2021/06/09 11:54:17;;;;;;;1.10;1.00;;;27.50;43.30;;;;;;5033591;28;20037;-51
2021/06/09 11:56:47;;;;;;;1.20;1.05;;;27.50;44.00;;;;;;5033187;28;20031;-50
2021/06/09 11:59:36;;;;;;;1.98;1.30;;;27.60;43.30;;;;;;5034510;28;20159;-56
2021/06/09 12:02:05;;;;;;;1.52;1.20;;;27.70;43.50;;;;;;5033776;28;20558;-51
2021/06/09 12:04:36;;;;;;;3.08;1.10;;;27.50;43.40;;;;;;5024964;28;20116;-55
2021/06/09 12:07:25;;;;;;;2.28;1.15;;;27.50;43.30;;;;;;5014128;28;20037;-53
2021/06/09 12:09:55;;;;;;;1.30;1.02;;;27.40;43.50;;;;;;5030430;28;20076;-53
2021/06/09 12:12:25;;;;;;;1.02;0.70;;;27.30;43.20;;;;;;5033211;28;20032;-54
2021/06/09 12:14:55;;;;;;;1.63;1.08;;;27.40;43.00;;;;;;5032847;28;20044;-52
2021/06/09 12:17:32;;;;;;;0.93;0.90;;;27.40;42.90;;;;;;5033827;28;20025;-48
2021/06/09 12:20:21;;;;;;;1.63;0.77;;;27.50;42.90;;;;;;5033360;28;20021;-54
2021/06/09 12:22:52;;;;;;;0.80;0.80;;;27.60;42.50;;;;;;5033501;28;20030;-54
2021/06/09 12:25:27;;;;;;;1.33;0.98;;;27.90;42.50;;;;;;5033424;28;20029;-56
2021/06/09 12:28:10;;;;;;;2.13;0.88;;;27.90;42.30;;;;;;5023946;28;20028;-53
2021/06/09 12:30:41;;;;;;;1.25;0.82;;;27.90;42.40;;;;;;5032423;28;20104;-53
2021/06/09 12:33:06;;;;;;;0.98;0.85;;;27.80;42.30;;;;;;5032856;28;20182;-53
2021/06/09 12:35:33;;;;;;;0.80;0.80;;;27.80;42.50;;;;;;5030262;28;20021;-53
2021/06/09 12:38:03;;;;;;;1.25;1.08;;;27.80;42.60;;;;;;5036727;28;20032;-56
2021/06/09 12:40:40;;;;;;;1.25;1.10;;;27.90;42.40;;;;;;5027226;28;20030;-53
2021/06/09 12:43:10;;;;;;;1.92;1.17;;;27.90;42.10;;;;;;5046588;28;20048;-51
2021/06/09 12:45:43;;;;;;;1.10;0.90;;;27.80;42.30;;;;;;5052530;28;20056;-53
2021/06/09 12:48:17;;;;;;;0.93;0.73;;;27.90;42.40;;;;;;5033168;28;20508;-53
2021/06/09 12:50:46;;;;;;;0.80;0.80;;;27.80;42.50;;;;;;5025299;28;20025;-55
2021/06/09 12:53:17;;;;;;;1.73;1.02;;;27.90;42.70;;;;;;5031353;28;20101;-54
2021/06/09 12:55:47;;;;;;;4.25;1.10;;;28.00;43.20;;;;;;5020728;28;20033;-50
2021/06/09 12:58:19;;;;;;;1.48;1.38;;;27.80;43.20;;;;;;5038973;28;20386;-50
2021/06/09 13:00:46;;;;;;;1.10;0.93;;;27.60;43.60;;;;;;5033554;28;20520;-53